Time;durP1;ratioP1;P1;durP2;ratioP2;P2;SDS_P1;SDS_P2;PMS_P1;PMS_P2;Temp;Humidity;BMP_temperature;BMP_pressure;BME280_temperature;BME280_humidity;BME280_pressure;Samples;Min_cycle;Max_cycle;Signal;HPM_P1;HPM_P2
2021/03/29 00:00:50;;;;;;;9.90;4.57;;;10.00;65.60;;;;;;5037795;28;20469;-41
2021/03/29 00:03:17;;;;;;;5.27;4.07;;;10.00;65.50;;;;;;5042322;28;21210;-41
2021/03/29 00:05:44;;;;;;;6.50;5.07;;;10.00;65.60;;;;;;5046016;28;20514;-42
2021/03/29 00:08:19;;;;;;;8.67;4.03;;;9.90;65.70;;;;;;5038745;28;20649;-41
2021/03/29 00:10:48;;;;;;;10.67;4.33;;;9.90;65.70;;;;;;5042275;28;20454;-41
2021/03/29 00:13:16;;;;;;;11.43;3.97;;;9.80;65.80;;;;;;5037795;28;20867;-42
2021/03/29 00:15:45;;;;;;;5.60;3.80;;;9.80;65.90;;;;;;5026551;28;20469;-41
2021/03/29 00:18:12;;;;;;;9.10;5.00;;;9.80;66.20;;;;;;5043219;28;20482;-41
2021/03/29 00:20:43;;;;;;;11.17;5.20;;;9.70;66.40;;;;;;5039829;28;20474;-41
2021/03/29 00:23:10;;;;;;;8.30;4.63;;;9.70;66.40;;;;;;5040234;28;20458;-41
2021/03/29 00:25:36;;;;;;;11.90;5.23;;;9.70;66.50;;;;;;5042006;28;20504;-41
2021/03/29 00:28:04;;;;;;;8.37;5.10;;;9.60;66.50;;;;;;5039585;28;20462;-41
2021/03/29 00:30:36;;;;;;;14.40;5.23;;;9.60;66.60;;;;;;5059625;28;20459;-41
2021/03/29 00:33:05;;;;;;;8.03;5.30;;;9.60;66.70;;;;;;5040025;28;20542;-41
2021/03/29 00:35:35;;;;;;;9.80;5.43;;;9.50;66.70;;;;;;5045099;28;20471;-41
2021/03/29 00:38:04;;;;;;;12.47;5.50;;;9.50;66.80;;;;;;5043450;28;20472;-41
2021/03/29 00:40:31;;;;;;;11.10;5.47;;;9.50;66.90;;;;;;5044716;28;20513;-41
2021/03/29 00:43:13;;;;;;;9.57;5.30;;;9.40;66.90;;;;;;5044414;28;20467;-41
2021/03/29 00:45:43;;;;;;;9.30;5.30;;;9.40;67.00;;;;;;5044609;28;20565;-41
2021/03/29 00:48:11;;;;;;;8.60;5.10;;;9.40;67.10;;;;;;5042646;28;20803;-41
2021/03/29 00:50:57;;;;;;;9.70;6.20;;;9.30;67.20;;;;;;5047443;28;20447;-41
2021/03/29 00:53:24;;;;;;;9.77;4.67;;;9.30;67.30;;;;;;5043132;28;20459;-41
2021/03/29 00:55:51;;;;;;;11.37;4.67;;;9.30;67.30;;;;;;5046937;28;20459;-41
2021/03/29 00:58:23;;;;;;;9.27;4.67;;;9.30;67.40;;;;;;5042193;28;20538;-41
2021/03/29 01:01:02;;;;;;;9.80;4.83;;;9.20;67.50;;;;;;5041117;28;20466;-41
2021/03/29 01:03:32;;;;;;;8.53;4.63;;;9.20;67.50;;;;;;5040102;28;20533;-41
2021/03/29 01:06:05;;;;;;;7.77;4.23;;;9.20;67.60;;;;;;5043865;28;21014;-41
2021/03/29 01:08:34;;;;;;;12.37;5.60;;;9.10;67.80;;;;;;5045127;28;20455;-41
2021/03/29 01:11:05;;;;;;;11.80;4.40;;;9.10;67.90;;;;;;5029302;28;20902;-41
2021/03/29 01:13:34;;;;;;;8.53;4.83;;;9.10;68.10;;;;;;5040982;28;20458;-41
2021/03/29 01:16:03;;;;;;;10.03;4.90;;;9.10;68.10;;;;;;5038418;28;20455;-41
2021/03/29 01:18:31;;;;;;;10.67;4.90;;;9.10;68.10;;;;;;5045867;28;20470;-41
2021/03/29 01:21:16;;;;;;;10.20;5.30;;;9.00;68.10;;;;;;5044896;28;20946;-41
2021/03/29 01:23:44;;;;;;;8.33;5.40;;;9.00;68.20;;;;;;5040767;28;20687;-41
2021/03/29 01:26:33;;;;;;;9.50;5.53;;;9.00;68.20;;;;;;5039685;28;20486;-41
2021/03/29 01:29:01;;;;;;;6.87;3.80;;;9.00;68.50;;;;;;5028102;28;20523;-41
2021/03/29 01:31:27;;;;;;;5.83;4.10;;;8.90;68.50;;;;;;5041282;28;20450;-41
2021/03/29 01:33:55;;;;;;;6.50;4.20;;;8.90;68.70;;;;;;5057066;28;20846;-41
2021/03/29 01:36:23;;;;;;;8.90;4.07;;;8.90;68.70;;;;;;5043482;28;20468;-41
2021/03/29 01:38:50;;;;;;;7.10;4.17;;;8.80;68.70;;;;;;5043382;28;20489;-41
2021/03/29 01:41:17;;;;;;;4.40;3.40;;;8.80;68.70;;;;;;5046559;28;20469;-41
2021/03/29 01:43:45;;;;;;;16.37;4.07;;;8.80;68.80;;;;;;5039205;28;20458;-41
2021/03/29 01:46:13;;;;;;;6.20;3.70;;;8.70;68.90;;;;;;5041918;28;20474;-41
2021/03/29 01:48:41;;;;;;;7.37;3.33;;;8.70;69.00;;;;;;5040971;28;20473;-41
2021/03/29 01:51:08;;;;;;;5.50;3.40;;;8.70;69.10;;;;;;5056509;28;21010;-41
2021/03/29 01:53:34;;;;;;;8.50;4.40;;;8.70;69.20;;;;;;5044562;28;20501;-41
2021/03/29 01:56:01;;;;;;;9.50;4.53;;;8.60;69.30;;;;;;5041998;28;20535;-41
2021/03/29 01:58:28;;;;;;;8.63;4.63;;;8.60;69.30;;;;;;5039642;28;20463;-41
2021/03/29 02:01:00;;;;;;;11.30;5.30;;;8.60;69.30;;;;;;5038219;28;20473;-41
2021/03/29 02:03:28;;;;;;;12.10;4.37;;;8.60;69.40;;;;;;5042607;28;20477;-41
2021/03/29 02:05:55;;;;;;;4.30;3.70;;;8.60;69.50;;;;;;5039669;28;20488;-41
2021/03/29 02:08:24;;;;;;;6.10;3.20;;;8.60;69.70;;;;;;5040199;28;20894;-41
2021/03/29 02:10:51;;;;;;;10.70;5.00;;;8.50;69.80;;;;;;5043553;28;20447;-41
2021/03/29 02:13:21;;;;;;;4.90;3.30;;;8.50;69.80;;;;;;5039890;28;20822;-41
2021/03/29 02:15:52;;;;;;;3.70;3.07;;;8.50;69.90;;;;;;5042861;28;20474;-41
2021/03/29 02:18:24;;;;;;;5.63;3.43;;;8.50;70.00;;;;;;5042588;28;20459;-41
2021/03/29 02:20:51;;;;;;;9.07;3.80;;;8.50;70.10;;;;;;5043520;28;20827;-41
2021/03/29 02:23:19;;;;;;;8.63;3.50;;;8.50;70.20;;;;;;5036033;28;20462;-41
2021/03/29 02:25:48;;;;;;;6.07;3.70;;;8.40;70.30;;;;;;5043155;28;20486;-41
2021/03/29 02:28:15;;;;;;;9.53;4.40;;;8.40;70.40;;;;;;5040921;28;20477;-41
2021/03/29 02:30:44;;;;;;;6.47;3.70;;;8.40;70.50;;;;;;5043785;28;20461;-44
2021/03/29 02:33:12;;;;;;;6.20;3.80;;;8.40;70.60;;;;;;5037875;28;20709;-44
2021/03/29 02:35:42;;;;;;;6.17;3.67;;;8.40;70.70;;;;;;5035736;28;20558;-44
2021/03/29 02:38:15;;;;;;;5.53;3.97;;;8.40;70.70;;;;;;5034821;28;20459;-44
2021/03/29 02:40:43;;;;;;;9.60;4.37;;;8.40;70.70;;;;;;5042268;28;20455;-44
2021/03/29 02:43:11;;;;;;;8.30;5.50;;;8.40;70.80;;;;;;5040927;28;20935;-44
2021/03/29 02:45:42;;;;;;;8.50;3.93;;;8.50;70.80;;;;;;5044422;28;20509;-44
2021/03/29 02:48:13;;;;;;;5.57;3.60;;;8.50;70.50;;;;;;5054852;28;20542;-44
2021/03/29 02:50:42;;;;;;;7.00;3.70;;;8.50;70.50;;;;;;5042479;28;20450;-44
2021/03/29 02:53:15;;;;;;;8.30;3.20;;;8.50;70.50;;;;;;5055653;28;20471;-44
2021/03/29 02:55:45;;;;;;;7.10;5.40;;;8.40;70.40;;;;;;5041497;28;20966;-43
2021/03/29 02:58:15;;;;;;;5.90;3.10;;;8.40;70.50;;;;;;5049208;28;20463;-42
2021/03/29 03:00:42;;;;;;;6.43;3.30;;;8.40;70.50;;;;;;5040718;28;20548;-42
2021/03/29 03:03:08;;;;;;;9.53;3.33;;;8.40;70.40;;;;;;5038874;28;20454;-42
2021/03/29 03:05:36;;;;;;;3.10;2.53;;;8.30;70.40;;;;;;5043711;28;20513;-42
2021/03/29 03:08:05;;;;;;;5.33;3.43;;;8.30;70.30;;;;;;5039634;28;21007;-42
2021/03/29 03:10:33;;;;;;;3.93;2.87;;;8.30;70.30;;;;;;5039059;28;20455;-42
2021/03/29 03:13:03;;;;;;;14.87;3.57;;;8.30;70.20;;;;;;5024684;28;20459;-42
2021/03/29 03:15:31;;;;;;;4.23;2.87;;;8.30;70.20;;;;;;5057701;28;20860;-42
2021/03/29 03:18:03;;;;;;;3.60;2.60;;;8.20;70.30;;;;;;5039317;28;20479;-42
2021/03/29 03:20:31;;;;;;;5.33;2.97;;;8.20;70.30;;;;;;5042483;28;20451;-42
2021/03/29 03:23:04;;;;;;;10.07;3.20;;;8.10;70.30;;;;;;5039644;28;20524;-42
2021/03/29 03:25:35;;;;;;;9.73;4.20;;;8.10;70.40;;;;;;5051951;28;20495;-42
2021/03/29 03:28:05;;;;;;;7.60;3.30;;;8.10;70.40;;;;;;5038936;28;20452;-42
2021/03/29 03:30:33;;;;;;;6.70;2.87;;;8.00;70.70;;;;;;5041929;28;20473;-42
2021/03/29 03:33:02;;;;;;;4.80;3.40;;;8.00;70.80;;;;;;5038582;28;21026;-42
2021/03/29 03:35:29;;;;;;;7.43;3.30;;;7.90;70.80;;;;;;5041161;28;20459;-42
2021/03/29 03:38:26;;;;;;;8.50;3.97;;;7.90;70.80;;;;;;5035350;28;20554;-42
2021/03/29 03:40:56;;;;;;;6.73;3.37;;;7.90;71.00;;;;;;5040736;28;20605;-42
2021/03/29 03:43:27;;;;;;;5.70;4.00;;;7.90;71.10;;;;;;5038578;28;20983;-42
2021/03/29 03:46:03;;;;;;;6.40;4.00;;;7.80;71.20;;;;;;5042450;28;20474;-42
2021/03/29 03:48:31;;;;;;;7.60;4.40;;;7.80;71.20;;;;;;5039094;28;20542;-42
2021/03/29 03:50:59;;;;;;;6.73;3.77;;;7.80;71.30;;;;;;5041261;28;20468;-42
2021/03/29 03:53:27;;;;;;;5.87;3.47;;;7.70;71.40;;;;;;5041003;28;20473;-42
2021/03/29 03:55:55;;;;;;;5.37;2.63;;;7.70;71.70;;;;;;5040355;28;20450;-42
2021/03/29 03:58:23;;;;;;;7.33;3.43;;;7.70;71.90;;;;;;5038782;28;20604;-42
2021/03/29 04:00:50;;;;;;;4.13;2.90;;;7.70;72.00;;;;;;5040171;28;20955;-42
2021/03/29 04:03:17;;;;;;;7.10;3.07;;;7.70;72.00;;;;;;5039999;28;20476;-42
2021/03/29 04:05:45;;;;;;;8.90;3.33;;;7.70;72.10;;;;;;5045636;28;20482;-42
2021/03/29 04:08:31;;;;;;;5.47;4.33;;;7.60;72.10;;;;;;5044557;28;20447;-42
2021/03/29 04:10:59;;;;;;;7.23;4.30;;;7.60;72.10;;;;;;5048208;28;20833;-42
2021/03/29 04:15:56;;;;;;;8.60;3.63;;;7.60;72.20;;;;;;5044669;28;20468;-42
2021/03/29 04:18:23;;;;;;;6.00;4.20;;;7.60;72.30;;;;;;5040296;28;20492;-42
2021/03/29 04:20:50;;;;;;;7.60;3.63;;;7.50;72.40;;;;;;5041593;28;20466;-42
2021/03/29 04:23:18;;;;;;;7.00;3.40;;;7.50;72.50;;;;;;5044173;28;20992;-42
2021/03/29 04:25:46;;;;;;;9.00;3.80;;;7.50;72.60;;;;;;5045644;28;20486;-42
2021/03/29 04:28:12;;;;;;;6.43;3.50;;;7.50;72.60;;;;;;5038429;28;20462;-42
2021/03/29 04:30:38;;;;;;;5.93;3.10;;;7.50;72.60;;;;;;5043527;28;20455;-42
2021/03/29 04:33:05;;;;;;;4.57;3.27;;;7.40;72.70;;;;;;5044142;28;20454;-42
2021/03/29 04:35:34;;;;;;;9.47;3.40;;;7.40;72.80;;;;;;5043060;28;20467;-42
2021/03/29 04:38:01;;;;;;;5.20;3.20;;;7.40;72.80;;;;;;5044154;28;20470;-42
2021/03/29 04:40:28;;;;;;;5.87;3.43;;;7.40;72.90;;;;;;5063157;28;20467;-42
2021/03/29 04:42:55;;;;;;;6.07;4.10;;;7.40;72.90;;;;;;5046465;28;20454;-42
2021/03/29 04:45:22;;;;;;;5.37;3.53;;;7.40;73.00;;;;;;5040991;28;20889;-42
2021/03/29 04:47:49;;;;;;;10.57;4.57;;;7.40;73.10;;;;;;5047518;28;20460;-42
2021/03/29 04:50:19;;;;;;;6.97;3.73;;;7.40;73.10;;;;;;5045740;28;20565;-42
2021/03/29 04:52:45;;;;;;;5.10;2.97;;;7.30;73.30;;;;;;5040835;28;20455;-42
2021/03/29 04:55:14;;;;;;;6.10;3.50;;;7.30;73.40;;;;;;5045871;28;20839;-42
2021/03/29 04:57:41;;;;;;;9.57;3.63;;;7.30;73.50;;;;;;5038977;28;20455;-42
2021/03/29 05:00:08;;;;;;;8.70;4.50;;;7.30;73.60;;;;;;5027630;28;20462;-42
2021/03/29 05:02:35;;;;;;;8.50;4.80;;;7.30;73.60;;;;;;5036837;28;20558;-43
2021/03/29 05:05:02;;;;;;;6.63;4.47;;;7.30;73.70;;;;;;5044745;28;20457;-42
2021/03/29 05:07:28;;;;;;;8.93;3.90;;;7.30;73.70;;;;;;5038949;28;20465;-42
2021/03/29 05:09:55;;;;;;;6.53;3.90;;;7.30;73.80;;;;;;5045219;28;20529;-42
2021/03/29 05:12:24;;;;;;;6.43;3.50;;;7.30;73.80;;;;;;5042722;28;20459;-42
2021/03/29 05:14:51;;;;;;;7.27;4.50;;;7.30;73.80;;;;;;5041667;28;20451;-42
2021/03/29 05:17:19;;;;;;;12.07;5.40;;;7.30;73.90;;;;;;5044526;28;20864;-42
2021/03/29 05:19:46;;;;;;;8.73;4.23;;;7.20;73.90;;;;;;5041444;28;20516;-42
2021/03/29 05:22:13;;;;;;;7.50;4.20;;;7.20;73.90;;;;;;5038057;28;20946;-42
2021/03/29 05:24:40;;;;;;;5.70;4.07;;;7.20;74.00;;;;;;5047333;28;20454;-42
2021/03/29 05:27:06;;;;;;;6.03;4.30;;;7.20;74.00;;;;;;5044398;28;20489;-42
2021/03/29 05:29:43;;;;;;;9.47;4.80;;;7.20;74.10;;;;;;5043013;28;21022;-42
2021/03/29 05:32:18;;;;;;;5.43;3.60;;;7.20;74.10;;;;;;5042232;28;20471;-42
2021/03/29 05:34:47;;;;;;;7.83;4.23;;;7.20;74.10;;;;;;5045413;28;20970;-42
2021/03/29 05:37:14;;;;;;;9.73;4.87;;;7.20;74.10;;;;;;5043136;28;20460;-42
2021/03/29 05:39:41;;;;;;;11.90;5.17;;;7.20;74.10;;;;;;5043459;28;20457;-42
2021/03/29 05:42:08;;;;;;;6.37;4.50;;;7.10;74.20;;;;;;5043853;28;20464;-42
2021/03/29 05:44:35;;;;;;;7.00;5.07;;;7.10;74.20;;;;;;5042185;28;20473;-42
2021/03/29 05:47:02;;;;;;;9.17;6.40;;;7.10;74.20;;;;;;5039512;28;20487;-42
2021/03/29 05:49:31;;;;;;;8.53;4.90;;;7.10;74.40;;;;;;5044865;28;20539;-42
2021/03/29 05:51:58;;;;;;;8.20;4.87;;;7.10;74.40;;;;;;5046735;28;20482;-42
2021/03/29 05:54:24;;;;;;;7.37;4.90;;;7.10;74.50;;;;;;5041093;28;20451;-42
2021/03/29 05:56:51;;;;;;;10.63;4.87;;;7.10;74.50;;;;;;5045181;28;20462;-42
2021/03/29 05:59:20;;;;;;;10.30;4.50;;;7.10;74.50;;;;;;5037293;28;20451;-42
2021/03/29 06:01:48;;;;;;;10.93;4.97;;;7.10;74.50;;;;;;5042439;28;20466;-42
2021/03/29 06:04:35;;;;;;;11.17;5.17;;;7.10;74.50;;;;;;5039164;28;20467;-41
2021/03/29 06:07:19;;;;;;;9.83;4.73;;;7.10;74.50;;;;;;5043115;28;20723;-42
2021/03/29 06:09:48;;;;;;;7.57;4.80;;;7.10;74.60;;;;;;5044329;28;20462;-42
2021/03/29 06:12:17;;;;;;;5.80;4.07;;;7.10;74.60;;;;;;5042432;28;20533;-42
2021/03/29 06:14:44;;;;;;;8.50;4.20;;;7.20;74.50;;;;;;5046164;28;20453;-42
2021/03/29 06:17:20;;;;;;;7.40;4.10;;;7.20;74.50;;;;;;5041975;28;20521;-42
2021/03/29 06:19:59;;;;;;;6.63;4.27;;;7.30;74.40;;;;;;5041021;28;20449;-42
2021/03/29 06:22:36;;;;;;;4.90;4.13;;;7.30;74.40;;;;;;5041584;28;20994;-42
2021/03/29 06:25:15;;;;;;;7.47;4.63;;;7.30;74.30;;;;;;5042268;28;20473;-42
2021/03/29 06:27:46;;;;;;;7.20;4.67;;;7.30;74.10;;;;;;5039933;28;20460;-42
2021/03/29 06:30:35;;;;;;;10.47;4.33;;;7.40;73.90;;;;;;5041975;28;20557;-42
2021/03/29 06:33:15;;;;;;;7.67;4.20;;;7.50;74.00;;;;;;5043498;28;20466;-42
2021/03/29 06:35:47;;;;;;;8.73;5.00;;;7.60;73.60;;;;;;5037643;28;20497;-42
2021/03/29 06:38:15;;;;;;;6.50;4.50;;;7.60;73.30;;;;;;5040111;28;20498;-42
2021/03/29 06:40:46;;;;;;;4.83;4.33;;;7.70;73.20;;;;;;5062087;28;20445;-42
2021/03/29 06:43:25;;;;;;;11.90;4.93;;;7.80;73.00;;;;;;5042561;28;20464;-42
2021/03/29 06:46:00;;;;;;;11.30;4.53;;;7.80;73.00;;;;;;5038011;28;20491;-42
2021/03/29 06:48:33;;;;;;;9.30;4.73;;;7.80;73.20;;;;;;5038958;28;20497;-42
2021/03/29 06:51:33;;;;;;;9.57;4.80;;;7.80;73.30;;;;;;5039217;28;20451;-42
2021/03/29 06:54:05;;;;;;;6.87;4.30;;;7.80;73.50;;;;;;5021756;28;20467;-42
2021/03/29 06:56:33;;;;;;;7.43;4.43;;;7.90;73.30;;;;;;5035312;28;20563;-42
2021/03/29 06:59:02;;;;;;;6.87;4.40;;;8.00;73.30;;;;;;5039522;28;20515;-42
2021/03/29 07:01:29;;;;;;;13.00;6.13;;;8.00;73.00;;;;;;5046177;28;20482;-42
2021/03/29 07:03:56;;;;;;;8.17;4.50;;;8.10;72.90;;;;;;5039455;28;20462;-42
2021/03/29 07:06:25;;;;;;;9.47;4.93;;;8.20;72.60;;;;;;5040155;28;20512;-42
2021/03/29 07:08:52;;;;;;;11.07;6.00;;;8.20;72.50;;;;;;5057288;28;21130;-42
2021/03/29 07:11:20;;;;;;;10.97;5.80;;;8.30;72.20;;;;;;5043549;28;20455;-42
2021/03/29 07:13:47;;;;;;;14.73;5.30;;;8.40;71.60;;;;;;5053786;28;20451;-42
2021/03/29 07:16:14;;;;;;;9.97;6.10;;;8.50;71.20;;;;;;5040422;28;20687;-42
2021/03/29 07:18:41;;;;;;;6.07;5.37;;;8.60;70.90;;;;;;5029243;28;20471;-41
2021/03/29 07:21:11;;;;;;;6.20;4.97;;;8.70;70.40;;;;;;5038169;28;20462;-42
2021/03/29 07:23:41;;;;;;;9.93;6.20;;;8.80;70.00;;;;;;5037499;28;20474;-42
2021/03/29 07:26:26;;;;;;;10.40;5.20;;;9.00;69.60;;;;;;5051931;28;20474;-42
2021/03/29 07:28:55;;;;;;;8.70;4.70;;;9.10;69.50;;;;;;5040461;28;20489;-42
2021/03/29 07:31:42;;;;;;;10.47;5.50;;;9.30;68.70;;;;;;5039234;28;20940;-42
2021/03/29 07:34:09;;;;;;;23.40;5.50;;;9.40;68.60;;;;;;5041987;28;20455;-42
2021/03/29 07:36:46;;;;;;;7.47;4.80;;;9.60;67.80;;;;;;5045929;28;20532;-42
2021/03/29 07:39:19;;;;;;;9.53;5.17;;;9.70;67.30;;;;;;5046886;28;20486;-42
2021/03/29 07:41:46;;;;;;;10.00;5.67;;;9.90;67.30;;;;;;5045469;28;20469;-42
2021/03/29 07:44:12;;;;;;;8.33;4.93;;;10.20;66.90;;;;;;5043120;28;20450;-42
2021/03/29 07:46:41;;;;;;;8.83;4.40;;;10.30;65.80;;;;;;5041727;28;20486;-42
2021/03/29 07:49:46;;;;;;;14.13;4.50;;;10.60;64.90;;;;;;5040139;28;20821;-42
2021/03/29 07:52:39;;;;;;;8.60;4.50;;;10.90;63.80;;;;;;5045083;28;20873;-42
2021/03/29 07:55:27;;;;;;;11.77;5.67;;;11.20;63.70;;;;;;5043223;28;20459;-42
2021/03/29 07:57:56;;;;;;;7.33;4.97;;;11.50;62.70;;;;;;5046854;28;20895;-42
2021/03/29 08:00:25;;;;;;;7.43;4.00;;;11.70;62.20;;;;;;5039764;28;20459;-42
2021/03/29 08:02:55;;;;;;;9.13;6.20;;;12.00;61.50;;;;;;5041615;28;20874;-42
2021/03/29 08:05:44;;;;;;;7.63;4.60;;;12.20;60.70;;;;;;5040041;28;20455;-42
2021/03/29 08:08:33;;;;;;;8.03;4.87;;;12.50;59.80;;;;;;5039882;28;20466;-42
2021/03/29 08:11:13;;;;;;;9.77;4.93;;;12.80;59.20;;;;;;5046724;28;20486;-42
2021/03/29 08:13:54;;;;;;;8.00;4.57;;;13.00;59.00;;;;;;5042866;28;20808;-42
2021/03/29 08:16:27;;;;;;;10.00;4.43;;;13.30;57.40;;;;;;5044590;28;20474;-42
2021/03/29 08:19:11;;;;;;;7.77;5.20;;;13.60;56.90;;;;;;5060414;28;20459;-42
2021/03/29 08:21:47;;;;;;;4.53;3.70;;;13.90;56.60;;;;;;5046604;28;20459;-42
2021/03/29 08:24:30;;;;;;;11.70;4.83;;;14.10;56.10;;;;;;5045913;28;20461;-43
2021/03/29 08:26:59;;;;;;;6.73;3.70;;;14.40;54.80;;;;;;5044167;28;20475;-42
2021/03/29 08:29:31;;;;;;;6.93;4.00;;;14.60;54.00;;;;;;5039421;28;20491;-42
2021/03/29 08:32:13;;;;;;;8.10;4.10;;;14.70;52.90;;;;;;5039890;28;20466;-42
2021/03/29 08:34:49;;;;;;;7.13;3.70;;;14.80;52.80;;;;;;5039384;28;20471;-42
2021/03/29 08:37:49;;;;;;;7.47;4.20;;;14.90;52.70;;;;;;5045107;28;20888;-42
2021/03/29 08:40:30;;;;;;;8.70;4.83;;;15.00;52.20;;;;;;5046569;28;20458;-41
2021/03/29 08:43:02;;;;;;;5.63;4.17;;;15.20;52.30;;;;;;5048027;28;20453;-41
2021/03/29 08:45:30;;;;;;;8.97;4.40;;;15.40;51.70;;;;;;5045009;28;20454;-41
2021/03/29 08:47:59;;;;;;;7.83;4.87;;;15.70;51.50;;;;;;5041765;28;20456;-41
2021/03/29 08:50:33;;;;;;;4.80;4.00;;;15.80;50.30;;;;;;5039672;28;20546;-42
2021/03/29 08:53:10;;;;;;;7.80;3.97;;;16.00;49.90;;;;;;5048721;28;20430;-42
2021/03/29 08:55:41;;;;;;;9.53;4.00;;;16.30;49.90;;;;;;5044030;28;20458;-43
2021/03/29 08:58:09;;;;;;;10.97;4.33;;;16.60;48.90;;;;;;5028841;28;20483;-42
2021/03/29 09:00:40;;;;;;;5.50;4.67;;;16.90;48.00;;;;;;5039492;28;20944;-44
2021/03/29 09:03:35;;;;;;;6.20;4.13;;;17.20;47.60;;;;;;5041464;28;20535;-43
2021/03/29 09:06:14;;;;;;;9.77;5.17;;;17.50;47.00;;;;;;5037059;28;20489;-43
2021/03/29 09:08:41;;;;;;;7.80;4.50;;;17.80;46.30;;;;;;5038318;28;20457;-42
2021/03/29 09:11:07;;;;;;;7.93;4.03;;;18.10;45.90;;;;;;5046211;28;20459;-43
2021/03/29 09:13:33;;;;;;;10.53;5.57;;;18.30;45.40;;;;;;5044827;28;20459;-43
2021/03/29 09:16:07;;;;;;;5.30;3.53;;;18.50;45.40;;;;;;5043780;28;20458;-42
2021/03/29 09:18:34;;;;;;;6.80;5.27;;;18.70;45.20;;;;;;5038794;28;20574;-44
2021/03/29 09:21:00;;;;;;;6.93;4.63;;;18.90;44.80;;;;;;5042447;28;20448;-43
2021/03/29 09:23:30;;;;;;;11.50;4.67;;;19.10;44.70;;;;;;5050706;28;20828;-43
2021/03/29 09:25:58;;;;;;;7.90;4.73;;;19.30;44.40;;;;;;5037450;28;20488;-43
2021/03/29 09:28:42;;;;;;;4.83;3.83;;;19.40;44.00;;;;;;5037718;28;20495;-43
2021/03/29 09:31:19;;;;;;;9.30;4.00;;;19.50;44.00;;;;;;5043360;28;21052;-43
2021/03/29 09:33:46;;;;;;;4.37;3.57;;;19.70;44.50;;;;;;5041568;28;20466;-42
2021/03/29 09:36:15;;;;;;;8.10;4.27;;;19.90;43.50;;;;;;5037827;28;20931;-42
2021/03/29 09:38:44;;;;;;;11.13;4.03;;;20.00;43.20;;;;;;5043217;28;20458;-41
2021/03/29 09:41:32;;;;;;;8.57;3.80;;;20.20;43.10;;;;;;5040661;28;20468;-42
2021/03/29 09:44:06;;;;;;;6.07;4.47;;;20.50;43.10;;;;;;5044679;28;20975;-42
2021/03/29 09:46:33;;;;;;;9.77;4.77;;;20.70;42.80;;;;;;5037065;28;20483;-41
2021/03/29 09:49:08;;;;;;;7.67;4.60;;;21.00;41.90;;;;;;5040433;28;20459;-42
2021/03/29 09:51:36;;;;;;;7.63;4.13;;;21.10;41.60;;;;;;5042039;28;20459;-42
2021/03/29 09:54:21;;;;;;;8.00;4.30;;;21.20;41.60;;;;;;5036395;28;20465;-42
2021/03/29 09:56:48;;;;;;;9.20;4.40;;;21.40;41.70;;;;;;5042552;28;20460;-44
2021/03/29 09:59:25;;;;;;;15.40;7.40;;;21.50;41.30;;;;;;5041722;28;20470;-42
2021/03/29 10:01:51;;;;;;;8.10;4.93;;;21.80;40.90;;;;;;5041193;28;20536;-44
2021/03/29 10:04:18;;;;;;;10.43;4.07;;;21.90;40.40;;;;;;5041964;28;20472;-44
2021/03/29 10:06:53;;;;;;;9.10;3.97;;;21.90;40.60;;;;;;5038369;28;20501;-42
2021/03/29 10:09:33;;;;;;;7.53;4.73;;;21.90;40.40;;;;;;5034760;28;20459;-43
2021/03/29 10:12:01;;;;;;;8.43;4.20;;;22.00;40.50;;;;;;5043893;28;20856;-43
2021/03/29 10:14:34;;;;;;;10.50;4.83;;;22.30;40.70;;;;;;5052890;28;20967;-43
2021/03/29 10:17:19;;;;;;;5.80;3.70;;;22.60;39.60;;;;;;5040626;28;20473;-43
2021/03/29 10:19:46;;;;;;;6.90;3.60;;;23.00;38.50;;;;;;5037538;28;20458;-43
2021/03/29 10:22:16;;;;;;;5.43;3.03;;;23.30;37.70;;;;;;5038631;28;20960;-43
2021/03/29 10:25:05;;;;;;;6.43;3.03;;;23.50;37.30;;;;;;5038961;28;20470;-42
2021/03/29 10:27:42;;;;;;;7.73;2.83;;;23.90;37.40;;;;;;5038151;28;20924;-42
2021/03/29 10:30:10;;;;;;;8.13;3.80;;;24.20;36.00;;;;;;5040925;28;20450;-42
2021/03/29 10:32:37;;;;;;;3.70;2.90;;;24.40;35.20;;;;;;5039741;28;20451;-44
2021/03/29 10:35:04;;;;;;;6.87;3.40;;;24.50;35.00;;;;;;5036797;28;20470;-43
2021/03/29 10:37:32;;;;;;;5.00;3.00;;;24.60;35.10;;;;;;5037418;28;20463;-44
2021/03/29 10:40:00;;;;;;;4.03;3.10;;;24.60;35.10;;;;;;5046034;28;20546;-41
2021/03/29 10:42:31;;;;;;;6.83;3.53;;;24.70;35.50;;;;;;5041256;28;20473;-41
2021/03/29 10:44:57;;;;;;;8.60;3.90;;;24.80;34.60;;;;;;5038969;28;20551;-43
2021/03/29 10:47:24;;;;;;;7.47;3.87;;;25.00;34.90;;;;;;5039511;28;20486;-41
2021/03/29 10:49:52;;;;;;;5.77;2.83;;;25.10;34.60;;;;;;5045836;28;20810;-41
2021/03/29 10:52:18;;;;;;;4.03;2.77;;;25.20;34.70;;;;;;5045838;28;20821;-41
2021/03/29 10:54:47;;;;;;;8.30;3.60;;;25.30;34.50;;;;;;5041619;28;20504;-43
2021/03/29 10:57:13;;;;;;;6.07;2.80;;;25.30;34.50;;;;;;5038862;28;20462;-43
2021/03/29 10:59:40;;;;;;;4.97;3.00;;;25.30;34.80;;;;;;5037809;28;20465;-42
2021/03/29 11:02:06;;;;;;;4.77;3.43;;;25.30;34.60;;;;;;5038466;28;20825;-44
2021/03/29 11:04:33;;;;;;;7.47;3.23;;;25.40;34.10;;;;;;5051875;28;20476;-43
2021/03/29 11:06:59;;;;;;;4.63;2.40;;;25.30;34.20;;;;;;5037839;28;20484;-44
2021/03/29 11:09:25;;;;;;;14.93;3.37;;;25.20;34.40;;;;;;5060003;28;20457;-43
2021/03/29 11:11:53;;;;;;;8.70;2.83;;;25.10;34.30;;;;;;5034888;28;20497;-44
2021/03/29 11:14:20;;;;;;;5.17;2.40;;;25.00;35.00;;;;;;5045086;28;20453;-43
2021/03/29 11:16:54;;;;;;;4.30;2.40;;;25.10;34.40;;;;;;5036028;28;20477;-44
2021/03/29 11:19:20;;;;;;;7.70;2.53;;;25.00;33.90;;;;;;5038364;28;20970;-43
2021/03/29 11:21:48;;;;;;;5.07;2.57;;;24.90;34.40;;;;;;5040530;28;20447;-43
2021/03/29 11:24:17;;;;;;;8.70;2.60;;;24.80;34.40;;;;;;5039929;28;20468;-43
2021/03/29 11:26:43;;;;;;;7.50;2.30;;;24.80;34.70;;;;;;5042073;28;20882;-43
2021/03/29 11:29:10;;;;;;;5.40;2.77;;;24.90;34.50;;;;;;5044032;28;20501;-43
2021/03/29 11:31:41;;;;;;;5.47;2.40;;;24.90;34.30;;;;;;5043515;28;20456;-43
2021/03/29 11:34:08;;;;;;;4.50;2.20;;;24.90;34.40;;;;;;5041943;28;20443;-43
2021/03/29 11:36:35;;;;;;;4.77;1.97;;;24.90;33.90;;;;;;5042624;28;20446;-43
2021/03/29 11:39:04;;;;;;;10.73;3.70;;;24.70;33.80;;;;;;5040235;28;20935;-43
2021/03/29 11:41:31;;;;;;;4.53;2.27;;;24.50;34.10;;;;;;5047098;28;20924;-43
2021/03/29 11:43:57;;;;;;;6.63;1.97;;;24.40;34.80;;;;;;5044869;28;20833;-41
2021/03/29 11:46:24;;;;;;;4.37;1.90;;;24.20;34.60;;;;;;5037840;28;20524;-41
2021/03/29 11:48:50;;;;;;;8.60;2.67;;;24.00;34.90;;;;;;5045681;28;20446;-41
2021/03/29 11:51:17;;;;;;;3.27;1.80;;;24.00;35.40;;;;;;5042893;28;20473;-43
2021/03/29 11:53:44;;;;;;;3.70;2.07;;;23.90;35.80;;;;;;5041565;28;20446;-43
2021/03/29 11:56:12;;;;;;;2.80;2.10;;;23.90;34.80;;;;;;5041240;28;20948;-43
2021/03/29 11:58:39;;;;;;;3.80;2.40;;;23.90;35.00;;;;;;5043525;28;20794;-43
2021/03/29 12:01:17;;;;;;;6.13;1.83;;;23.80;35.20;;;;;;5039934;28;20977;-43
2021/03/29 12:06:18;;;;;;;5.80;2.10;;;23.80;34.60;;;;;;5042604;28;20485;-43
2021/03/29 12:08:50;;;;;;;5.80;1.93;;;23.60;34.60;;;;;;5046984;28;20441;-43
2021/03/29 12:14:03;;;;;;;3.73;1.70;;;23.50;35.60;;;;;;5042091;28;20485;-43
2021/03/29 12:16:37;;;;;;;5.80;2.47;;;23.40;34.80;;;;;;5040308;28;20489;-43
2021/03/29 12:19:04;;;;;;;6.63;2.10;;;23.30;34.90;;;;;;5040078;28;20446;-43
2021/03/29 12:21:35;;;;;;;4.10;2.13;;;23.20;35.10;;;;;;5030325;28;20456;-43
2021/03/29 12:24:12;;;;;;;5.13;2.50;;;23.10;36.00;;;;;;5043198;28;20523;-43
2021/03/29 12:26:40;;;;;;;5.27;2.73;;;23.10;35.90;;;;;;5043452;28;20477;-43
2021/03/29 12:29:11;;;;;;;4.20;2.00;;;23.20;35.80;;;;;;5041336;28;20540;-43
2021/03/29 12:31:39;;;;;;;7.17;2.20;;;23.20;35.30;;;;;;5036134;28;20983;-43
2021/03/29 12:34:12;;;;;;;5.60;2.13;;;23.20;34.80;;;;;;5031225;28;20485;-44
2021/03/29 12:36:49;;;;;;;4.90;2.37;;;23.20;35.10;;;;;;5040804;28;20465;-43
2021/03/29 12:41:46;;;;;;;4.53;1.70;;;23.00;35.90;;;;;;5049790;28;20498;-41
2021/03/29 12:44:18;;;;;;;6.20;2.33;;;23.00;35.80;;;;;;5042028;28;20467;-41
2021/03/29 12:46:48;;;;;;;8.60;2.03;;;23.00;35.30;;;;;;5043820;28;20505;-41
2021/03/29 12:49:16;;;;;;;5.90;1.90;;;23.10;35.20;;;;;;5042733;28;20549;-41
2021/03/29 12:51:43;;;;;;;6.10;2.70;;;23.20;35.30;;;;;;5050111;28;21278;-43
2021/03/29 12:54:13;;;;;;;4.33;2.10;;;23.40;35.00;;;;;;5043333;28;20936;-43
2021/03/29 12:56:42;;;;;;;3.33;1.83;;;23.50;35.20;;;;;;5046117;28;20445;-43
2021/03/29 12:59:08;;;;;;;8.93;1.90;;;23.70;34.90;;;;;;5038355;28;20918;-43
2021/03/29 13:01:37;;;;;;;2.40;1.90;;;23.80;33.10;;;;;;5043637;28;20450;-43
2021/03/29 13:04:15;;;;;;;7.00;2.07;;;24.00;34.50;;;;;;5047035;28;20458;-43
2021/03/29 13:12:34;;;;;;;7.60;1.83;;;24.30;32.20;;;;;;5029288;28;20442;-43
2021/03/29 13:15:11;;;;;;;3.87;2.27;;;24.40;32.10;;;;;;5044949;28;20919;-43
2021/03/29 13:17:42;;;;;;;6.83;2.10;;;24.40;32.40;;;;;;5060772;28;20476;-43
2021/03/29 13:20:16;;;;;;;3.20;2.30;;;24.40;32.00;;;;;;5042819;28;20463;-43
2021/03/29 13:22:46;;;;;;;3.60;2.37;;;24.50;32.30;;;;;;5044288;28;20466;-43
2021/03/29 13:25:29;;;;;;;4.60;2.13;;;24.50;31.60;;;;;;5032821;28;20451;-43